KIPT/IPT METAR and TAF weather

Enter ICAO airport designator
Station Type Date Time Source
KIPT METAR 2019/08/22 03:54 UTC NOAA

KIPT 220354Z AUTO 00000KT 8SM CLR 22/21 A2988 RMK AO2 SLP113 T02220206


Station Type Date Time Source
KIPT Decoded METAR 2019/08/22 03:54 UTC NOAA

Station name not available
Aug 21, 2019 - 11:54 PM EDT / 2019.08.22 0354 UTC
Wind: Calm:0
Visibility: 8 mile(s):0
Sky conditions: clear
Temperature: 72.0 F (22.2 C)
Dew Point: 69.1 F (20.6 C)
Relative Humidity: 90%
Pressure (altimeter): 29.88 in. Hg (1011 hPa)
ob: KIPT 220354Z AUTO 00000KT 8SM CLR 22/21 A2988 RMK AO2 SLP113 T02220206
cycle: 4

Station Type Date Time Source
KIPT TAF 2019/08/22 04:59 UTC NOAA

TAF
AMD KIPT 220359Z 2204/2224 00000KT P6SM FEW050
FM220800 00000KT 6SM BR BKN005
FM221030 00000KT 1 1/2SM BR OVC005
FM221200 26003KT 3SM BR OVC012
FM221330 26006KT P6SM BKN028
FM221600 26007KT P6SM -SHRA BKN040
FM221800 28008KT 6SM -SHRA VCTS BKN050CB
FM222100 30008KT P6SM BKN050

Example: see airport list